sensor_id;sensor_type;location;lat;lon;timestamp;P1;durP1;ratioP1;P2;durP2;ratioP2
7767;SDS011;3928;42.626;23.382;2023-09-19T00:00:33;8.20;;;4.40;;
7767;SDS011;3928;42.626;23.382;2023-09-19T00:03:01;6.10;;;4.53;;
7767;SDS011;3928;42.626;23.382;2023-09-19T00:05:33;5.05;;;4.53;;
7767;SDS011;3928;42.626;23.382;2023-09-19T00:08:01;6.97;;;4.55;;
7767;SDS011;3928;42.626;23.382;2023-09-19T00:10:29;9.77;;;4.55;;
7767;SDS011;3928;42.626;23.382;2023-09-19T00:12:57;7.18;;;4.40;;
7767;SDS011;3928;42.626;23.382;2023-09-19T00:15:25;9.07;;;4.70;;
7767;SDS011;3928;42.626;23.382;2023-09-19T00:17:54;4.72;;;4.22;;
7767;SDS011;3928;42.626;23.382;2023-09-19T00:20:21;5.90;;;4.53;;
7767;SDS011;3928;42.626;23.382;2023-09-19T00:22:51;5.88;;;4.68;;
7767;SDS011;3928;42.626;23.382;2023-09-19T00:25:18;6.72;;;4.82;;
7767;SDS011;3928;42.626;23.382;2023-09-19T00:27:46;5.68;;;4.85;;
7767;SDS011;3928;42.626;23.382;2023-09-19T00:30:15;5.40;;;4.63;;
7767;SDS011;3928;42.626;23.382;2023-09-19T00:32:45;5.05;;;4.55;;
7767;SDS011;3928;42.626;23.382;2023-09-19T00:35:13;7.25;;;4.60;;
7767;SDS011;3928;42.626;23.382;2023-09-19T00:37:41;7.85;;;5.10;;
7767;SDS011;3928;42.626;23.382;2023-09-19T00:40:10;4.70;;;4.20;;
7767;SDS011;3928;42.626;23.382;2023-09-19T00:42:38;6.68;;;4.60;;
7767;SDS011;3928;42.626;23.382;2023-09-19T00:45:06;5.93;;;5.13;;
7767;SDS011;3928;42.626;23.382;2023-09-19T00:47:36;7.50;;;4.65;;
7767;SDS011;3928;42.626;23.382;2023-09-19T00:50:04;7.43;;;4.97;;
7767;SDS011;3928;42.626;23.382;2023-09-19T00:52:33;5.75;;;5.15;;
7767;SDS011;3928;42.626;23.382;2023-09-19T00:55:02;8.02;;;4.78;;
7767;SDS011;3928;42.626;23.382;2023-09-19T00:57:30;5.05;;;4.50;;
7767;SDS011;3928;42.626;23.382;2023-09-19T00:59:58;6.05;;;4.47;;
7767;SDS011;3928;42.626;23.382;2023-09-19T01:02:30;6.07;;;4.95;;
7767;SDS011;3928;42.626;23.382;2023-09-19T01:04:57;6.70;;;4.63;;
7767;SDS011;3928;42.626;23.382;2023-09-19T01:07:25;7.78;;;4.97;;
7767;SDS011;3928;42.626;23.382;2023-09-19T01:09:52;8.75;;;4.88;;
7767;SDS011;3928;42.626;23.382;2023-09-19T01:12:22;10.10;;;4.88;;
7767;SDS011;3928;42.626;23.382;2023-09-19T01:14:59;7.30;;;4.80;;
7767;SDS011;3928;42.626;23.382;2023-09-19T01:17:34;5.88;;;4.95;;
7767;SDS011;3928;42.626;23.382;2023-09-19T01:20:19;7.95;;;5.38;;
7767;SDS011;3928;42.626;23.382;2023-09-19T01:22:56;6.80;;;5.22;;
7767;SDS011;3928;42.626;23.382;2023-09-19T01:25:42;7.55;;;4.93;;
7767;SDS011;3928;42.626;23.382;2023-09-19T01:28:30;6.68;;;4.85;;
7767;SDS011;3928;42.626;23.382;2023-09-19T01:31:03;5.78;;;4.88;;
7767;SDS011;3928;42.626;23.382;2023-09-19T01:36:26;5.97;;;4.78;;
7767;SDS011;3928;42.626;23.382;2023-09-19T01:38:55;7.20;;;5.50;;
7767;SDS011;3928;42.626;23.382;2023-09-19T01:41:30;7.38;;;5.13;;
7767;SDS011;3928;42.626;23.382;2023-09-19T01:44:17;7.70;;;5.30;;
7767;SDS011;3928;42.626;23.382;2023-09-19T01:46:50;5.63;;;4.38;;
7767;SDS011;3928;42.626;23.382;2023-09-19T01:49:25;6.15;;;4.88;;
7767;SDS011;3928;42.626;23.382;2023-09-19T01:52:00;6.40;;;5.07;;
7767;SDS011;3928;42.626;23.382;2023-09-19T01:54:33;9.48;;;4.82;;
7767;SDS011;3928;42.626;23.382;2023-09-19T01:57:09;6.32;;;5.47;;
7767;SDS011;3928;42.626;23.382;2023-09-19T01:59:45;5.63;;;4.72;;
7767;SDS011;3928;42.626;23.382;2023-09-19T02:02:18;6.47;;;5.07;;
7767;SDS011;3928;42.626;23.382;2023-09-19T02:04:48;5.90;;;5.25;;
7767;SDS011;3928;42.626;23.382;2023-09-19T02:07:15;7.38;;;5.65;;
7767;SDS011;3928;42.626;23.382;2023-09-19T02:09:42;7.00;;;5.63;;
7767;SDS011;3928;42.626;23.382;2023-09-19T02:12:09;5.45;;;4.90;;
7767;SDS011;3928;42.626;23.382;2023-09-19T02:14:36;7.40;;;5.93;;
7767;SDS011;3928;42.626;23.382;2023-09-19T02:17:03;6.10;;;5.28;;
7767;SDS011;3928;42.626;23.382;2023-09-19T02:19:37;7.78;;;6.05;;
7767;SDS011;3928;42.626;23.382;2023-09-19T02:22:06;9.73;;;5.32;;
7767;SDS011;3928;42.626;23.382;2023-09-19T02:24:35;7.18;;;5.22;;
7767;SDS011;3928;42.626;23.382;2023-09-19T02:27:03;8.80;;;5.28;;
7767;SDS011;3928;42.626;23.382;2023-09-19T02:29:30;7.88;;;5.22;;
7767;SDS011;3928;42.626;23.382;2023-09-19T02:31:57;7.78;;;5.38;;
7767;SDS011;3928;42.626;23.382;2023-09-19T02:34:24;5.90;;;5.30;;
7767;SDS011;3928;42.626;23.382;2023-09-19T02:36:53;6.15;;;5.55;;
7767;SDS011;3928;42.626;23.382;2023-09-19T02:39:21;8.25;;;5.90;;
7767;SDS011;3928;42.626;23.382;2023-09-19T02:41:48;7.15;;;5.80;;
7767;SDS011;3928;42.626;23.382;2023-09-19T02:44:15;6.63;;;6.00;;
7767;SDS011;3928;42.626;23.382;2023-09-19T02:46:42;6.60;;;5.68;;
7767;SDS011;3928;42.626;23.382;2023-09-19T02:49:09;6.43;;;5.45;;
7767;SDS011;3928;42.626;23.382;2023-09-19T02:51:36;8.35;;;4.82;;
7767;SDS011;3928;42.626;23.382;2023-09-19T02:54:04;7.28;;;5.18;;
7767;SDS011;3928;42.626;23.382;2023-09-19T02:56:31;5.68;;;5.05;;
7767;SDS011;3928;42.626;23.382;2023-09-19T02:58:58;8.90;;;5.30;;
7767;SDS011;3928;42.626;23.382;2023-09-19T03:01:25;5.20;;;4.70;;
7767;SDS011;3928;42.626;23.382;2023-09-19T03:03:53;5.32;;;4.68;;
7767;SDS011;3928;42.626;23.382;2023-09-19T03:06:20;6.97;;;4.90;;
7767;SDS011;3928;42.626;23.382;2023-09-19T03:08:47;4.90;;;4.40;;
7767;SDS011;3928;42.626;23.382;2023-09-19T03:11:18;7.88;;;4.85;;
7767;SDS011;3928;42.626;23.382;2023-09-19T03:13:50;7.05;;;5.03;;
7767;SDS011;3928;42.626;23.382;2023-09-19T03:16:18;7.00;;;5.38;;
7767;SDS011;3928;42.626;23.382;2023-09-19T03:18:46;11.45;;;6.03;;
7767;SDS011;3928;42.626;23.382;2023-09-19T03:21:13;6.88;;;5.60;;
7767;SDS011;3928;42.626;23.382;2023-09-19T03:23:40;10.05;;;5.80;;
7767;SDS011;3928;42.626;23.382;2023-09-19T03:26:08;7.80;;;6.00;;
7767;SDS011;3928;42.626;23.382;2023-09-19T03:28:36;9.63;;;5.18;;
7767;SDS011;3928;42.626;23.382;2023-09-19T03:31:04;7.22;;;5.57;;
7767;SDS011;3928;42.626;23.382;2023-09-19T03:33:32;5.60;;;4.93;;
7767;SDS011;3928;42.626;23.382;2023-09-19T03:35:59;7.60;;;5.43;;
7767;SDS011;3928;42.626;23.382;2023-09-19T03:38:29;7.00;;;4.97;;
7767;SDS011;3928;42.626;23.382;2023-09-19T03:40:56;6.20;;;4.78;;
7767;SDS011;3928;42.626;23.382;2023-09-19T03:43:23;7.88;;;5.15;;
7767;SDS011;3928;42.626;23.382;2023-09-19T03:45:51;6.50;;;5.10;;
7767;SDS011;3928;42.626;23.382;2023-09-19T03:48:19;6.85;;;4.95;;
7767;SDS011;3928;42.626;23.382;2023-09-19T03:50:46;5.97;;;5.13;;
7767;SDS011;3928;42.626;23.382;2023-09-19T03:53:13;5.82;;;5.22;;
7767;SDS011;3928;42.626;23.382;2023-09-19T03:55:40;7.82;;;5.18;;
7767;SDS011;3928;42.626;23.382;2023-09-19T03:58:07;5.45;;;4.95;;
7767;SDS011;3928;42.626;23.382;2023-09-19T04:00:34;8.23;;;5.97;;
7767;SDS011;3928;42.626;23.382;2023-09-19T04:03:02;13.13;;;6.03;;
7767;SDS011;3928;42.626;23.382;2023-09-19T04:05:31;6.53;;;5.45;;
7767;SDS011;3928;42.626;23.382;2023-09-19T04:07:58;9.43;;;5.50;;
7767;SDS011;3928;42.626;23.382;2023-09-19T04:10:25;6.07;;;5.13;;
7767;SDS011;3928;42.626;23.382;2023-09-19T04:12:53;5.90;;;4.90;;
7767;SDS011;3928;42.626;23.382;2023-09-19T04:15:20;8.35;;;5.78;;
7767;SDS011;3928;42.626;23.382;2023-09-19T04:17:48;8.98;;;6.28;;
7767;SDS011;3928;42.626;23.382;2023-09-19T04:20:17;10.95;;;5.72;;
7767;SDS011;3928;42.626;23.382;2023-09-19T04:22:44;7.80;;;6.00;;
7767;SDS011;3928;42.626;23.382;2023-09-19T04:25:12;9.10;;;4.80;;
7767;SDS011;3928;42.626;23.382;2023-09-19T04:27:39;7.43;;;5.85;;
7767;SDS011;3928;42.626;23.382;2023-09-19T04:30:09;7.32;;;6.05;;
7767;SDS011;3928;42.626;23.382;2023-09-19T04:32:38;8.38;;;7.50;;
7767;SDS011;3928;42.626;23.382;2023-09-19T04:35:06;10.00;;;7.28;;
7767;SDS011;3928;42.626;23.382;2023-09-19T04:37:36;12.20;;;7.22;;
7767;SDS011;3928;42.626;23.382;2023-09-19T04:40:05;14.85;;;7.53;;
7767;SDS011;3928;42.626;23.382;2023-09-19T04:42:38;10.50;;;8.27;;
7767;SDS011;3928;42.626;23.382;2023-09-19T04:45:05;9.73;;;7.80;;
7767;SDS011;3928;42.626;23.382;2023-09-19T04:47:34;10.52;;;7.47;;
7767;SDS011;3928;42.626;23.382;2023-09-19T04:50:05;10.05;;;7.18;;
7767;SDS011;3928;42.626;23.382;2023-09-19T04:52:39;10.68;;;7.78;;
7767;SDS011;3928;42.626;23.382;2023-09-19T04:55:07;11.05;;;6.95;;
7767;SDS011;3928;42.626;23.382;2023-09-19T04:57:36;11.10;;;8.27;;
7767;SDS011;3928;42.626;23.382;2023-09-19T05:00:04;13.15;;;7.07;;
7767;SDS011;3928;42.626;23.382;2023-09-19T05:02:37;13.60;;;7.72;;
7767;SDS011;3928;42.626;23.382;2023-09-19T05:05:05;12.68;;;6.90;;
7767;SDS011;3928;42.626;23.382;2023-09-19T05:07:33;9.50;;;6.10;;
7767;SDS011;3928;42.626;23.382;2023-09-19T05:10:02;9.35;;;5.80;;
7767;SDS011;3928;42.626;23.382;2023-09-19T05:12:32;9.50;;;5.45;;
7767;SDS011;3928;42.626;23.382;2023-09-19T05:14:59;10.77;;;6.13;;
7767;SDS011;3928;42.626;23.382;2023-09-19T05:17:26;6.18;;;5.57;;
7767;SDS011;3928;42.626;23.382;2023-09-19T05:19:53;6.13;;;5.50;;
7767;SDS011;3928;42.626;23.382;2023-09-19T05:22:20;7.45;;;5.50;;
7767;SDS011;3928;42.626;23.382;2023-09-19T05:24:47;9.48;;;6.20;;
7767;SDS011;3928;42.626;23.382;2023-09-19T05:27:15;8.52;;;5.85;;
7767;SDS011;3928;42.626;23.382;2023-09-19T05:29:42;6.15;;;5.55;;
7767;SDS011;3928;42.626;23.382;2023-09-19T05:32:09;8.93;;;6.03;;
7767;SDS011;3928;42.626;23.382;2023-09-19T05:34:37;10.02;;;6.03;;
7767;SDS011;3928;42.626;23.382;2023-09-19T05:37:04;7.05;;;5.50;;
7767;SDS011;3928;42.626;23.382;2023-09-19T05:39:33;10.30;;;5.65;;
7767;SDS011;3928;42.626;23.382;2023-09-19T05:42:00;7.00;;;6.10;;
7767;SDS011;3928;42.626;23.382;2023-09-19T05:44:28;8.40;;;5.53;;
7767;SDS011;3928;42.626;23.382;2023-09-19T05:46:55;8.68;;;5.80;;
7767;SDS011;3928;42.626;23.382;2023-09-19T05:49:23;9.45;;;5.78;;
7767;SDS011;3928;42.626;23.382;2023-09-19T05:51:50;7.70;;;5.55;;
7767;SDS011;3928;42.626;23.382;2023-09-19T05:54:19;7.00;;;5.70;;
7767;SDS011;3928;42.626;23.382;2023-09-19T05:56:46;10.45;;;5.43;;
7767;SDS011;3928;42.626;23.382;2023-09-19T05:59:14;8.93;;;6.32;;
7767;SDS011;3928;42.626;23.382;2023-09-19T06:01:42;8.25;;;5.47;;
7767;SDS011;3928;42.626;23.382;2023-09-19T06:04:09;6.90;;;5.13;;
7767;SDS011;3928;42.626;23.382;2023-09-19T06:06:36;7.93;;;5.80;;
7767;SDS011;3928;42.626;23.382;2023-09-19T06:09:05;9.18;;;5.43;;
7767;SDS011;3928;42.626;23.382;2023-09-19T06:11:33;8.18;;;5.22;;
7767;SDS011;3928;42.626;23.382;2023-09-19T06:14:00;8.30;;;5.68;;
7767;SDS011;3928;42.626;23.382;2023-09-19T06:16:27;6.57;;;5.50;;
7767;SDS011;3928;42.626;23.382;2023-09-19T06:18:56;6.30;;;5.55;;
7767;SDS011;3928;42.626;23.382;2023-09-19T06:21:24;7.18;;;5.57;;
7767;SDS011;3928;42.626;23.382;2023-09-19T06:23:51;5.55;;;4.82;;
7767;SDS011;3928;42.626;23.382;2023-09-19T06:26:19;7.22;;;5.15;;
7767;SDS011;3928;42.626;23.382;2023-09-19T06:28:46;7.70;;;4.78;;
7767;SDS011;3928;42.626;23.382;2023-09-19T06:31:13;6.97;;;4.90;;
7767;SDS011;3928;42.626;23.382;2023-09-19T06:33:40;6.97;;;5.38;;
7767;SDS011;3928;42.626;23.382;2023-09-19T06:36:09;6.32;;;4.65;;
7767;SDS011;3928;42.626;23.382;2023-09-19T06:38:36;6.95;;;4.47;;
7767;SDS011;3928;42.626;23.382;2023-09-19T06:41:06;5.13;;;4.35;;
7767;SDS011;3928;42.626;23.382;2023-09-19T06:43:33;9.48;;;5.22;;
7767;SDS011;3928;42.626;23.382;2023-09-19T06:46:01;8.95;;;5.47;;
7767;SDS011;3928;42.626;23.382;2023-09-19T06:48:29;8.48;;;5.90;;
7767;SDS011;3928;42.626;23.382;2023-09-19T06:50:56;8.70;;;6.35;;
7767;SDS011;3928;42.626;23.382;2023-09-19T06:53:31;10.95;;;6.35;;
7767;SDS011;3928;42.626;23.382;2023-09-19T06:55:58;11.77;;;6.50;;
7767;SDS011;3928;42.626;23.382;2023-09-19T06:58:25;7.13;;;5.20;;
7767;SDS011;3928;42.626;23.382;2023-09-19T07:00:52;7.88;;;5.13;;
7767;SDS011;3928;42.626;23.382;2023-09-19T07:03:19;10.88;;;5.40;;
7767;SDS011;3928;42.626;23.382;2023-09-19T07:05:50;10.20;;;5.45;;
7767;SDS011;3928;42.626;23.382;2023-09-19T07:08:17;6.40;;;5.38;;
7767;SDS011;3928;42.626;23.382;2023-09-19T07:10:46;5.68;;;4.30;;
7767;SDS011;3928;42.626;23.382;2023-09-19T07:13:15;6.63;;;4.55;;
7767;SDS011;3928;42.626;23.382;2023-09-19T07:15:43;7.25;;;5.03;;
7767;SDS011;3928;42.626;23.382;2023-09-19T07:18:12;8.02;;;4.82;;
7767;SDS011;3928;42.626;23.382;2023-09-19T07:20:40;5.82;;;4.88;;
7767;SDS011;3928;42.626;23.382;2023-09-19T07:23:10;6.22;;;4.43;;
7767;SDS011;3928;42.626;23.382;2023-09-19T07:25:39;10.07;;;4.95;;
7767;SDS011;3928;42.626;23.382;2023-09-19T07:28:07;12.93;;;4.88;;
7767;SDS011;3928;42.626;23.382;2023-09-19T07:30:35;7.28;;;5.07;;
7767;SDS011;3928;42.626;23.382;2023-09-19T07:33:04;7.18;;;4.90;;
7767;SDS011;3928;42.626;23.382;2023-09-19T07:35:31;7.80;;;4.68;;
7767;SDS011;3928;42.626;23.382;2023-09-19T07:37:58;5.90;;;4.00;;
7767;SDS011;3928;42.626;23.382;2023-09-19T07:40:26;5.57;;;5.00;;
7767;SDS011;3928;42.626;23.382;2023-09-19T07:42:54;8.00;;;4.55;;
7767;SDS011;3928;42.626;23.382;2023-09-19T07:45:22;6.72;;;4.93;;
7767;SDS011;3928;42.626;23.382;2023-09-19T07:47:50;6.50;;;4.90;;
7767;SDS011;3928;42.626;23.382;2023-09-19T07:50:17;15.05;;;4.78;;
7767;SDS011;3928;42.626;23.382;2023-09-19T07:52:45;8.30;;;5.50;;
7767;SDS011;3928;42.626;23.382;2023-09-19T07:55:12;11.30;;;6.95;;
7767;SDS011;3928;42.626;23.382;2023-09-19T07:57:41;8.10;;;5.38;;
7767;SDS011;3928;42.626;23.382;2023-09-19T08:00:09;12.98;;;6.32;;
7767;SDS011;3928;42.626;23.382;2023-09-19T08:02:38;9.02;;;5.72;;
7767;SDS011;3928;42.626;23.382;2023-09-19T08:05:07;7.72;;;5.80;;
7767;SDS011;3928;42.626;23.382;2023-09-19T08:07:36;9.13;;;5.97;;
7767;SDS011;3928;42.626;23.382;2023-09-19T08:10:03;10.57;;;6.55;;
7767;SDS011;3928;42.626;23.382;2023-09-19T08:12:32;7.75;;;6.15;;
7767;SDS011;3928;42.626;23.382;2023-09-19T08:15:00;6.80;;;6.03;;
7767;SDS011;3928;42.626;23.382;2023-09-19T08:17:27;9.95;;;6.90;;
7767;SDS011;3928;42.626;23.382;2023-09-19T08:19:56;8.73;;;5.93;;
7767;SDS011;3928;42.626;23.382;2023-09-19T08:22:22;9.48;;;5.75;;
7767;SDS011;3928;42.626;23.382;2023-09-19T08:24:49;8.20;;;5.53;;
7767;SDS011;3928;42.626;23.382;2023-09-19T08:27:16;12.23;;;5.80;;
7767;SDS011;3928;42.626;23.382;2023-09-19T08:29:44;9.05;;;6.20;;
7767;SDS011;3928;42.626;23.382;2023-09-19T08:32:11;8.77;;;5.43;;
7767;SDS011;3928;42.626;23.382;2023-09-19T08:34:39;9.07;;;5.68;;
7767;SDS011;3928;42.626;23.382;2023-09-19T08:37:08;5.70;;;4.93;;
7767;SDS011;3928;42.626;23.382;2023-09-19T08:39:35;8.65;;;5.40;;
7767;SDS011;3928;42.626;23.382;2023-09-19T08:42:02;6.03;;;4.93;;
7767;SDS011;3928;42.626;23.382;2023-09-19T08:44:29;6.00;;;5.05;;
7767;SDS011;3928;42.626;23.382;2023-09-19T08:47:05;11.32;;;5.93;;
7767;SDS011;3928;42.626;23.382;2023-09-19T08:49:36;11.07;;;5.28;;
7767;SDS011;3928;42.626;23.382;2023-09-19T08:52:10;10.00;;;5.35;;
7767;SDS011;3928;42.626;23.382;2023-09-19T08:54:45;5.97;;;5.25;;
7767;SDS011;3928;42.626;23.382;2023-09-19T08:57:15;7.70;;;5.30;;
7767;SDS011;3928;42.626;23.382;2023-09-19T08:59:47;6.03;;;4.65;;
7767;SDS011;3928;42.626;23.382;2023-09-19T09:02:15;9.95;;;5.50;;
7767;SDS011;3928;42.626;23.382;2023-09-19T09:04:44;6.97;;;5.22;;
7767;SDS011;3928;42.626;23.382;2023-09-19T09:07:14;7.55;;;4.97;;
7767;SDS011;3928;42.626;23.382;2023-09-19T09:09:41;7.85;;;4.93;;
7767;SDS011;3928;42.626;23.382;2023-09-19T09:12:10;6.78;;;5.20;;
7767;SDS011;3928;42.626;23.382;2023-09-19T09:14:38;7.28;;;4.93;;
7767;SDS011;3928;42.626;23.382;2023-09-19T09:17:06;6.38;;;4.88;;
7767;SDS011;3928;42.626;23.382;2023-09-19T09:19:34;9.52;;;5.50;;
7767;SDS011;3928;42.626;23.382;2023-09-19T09:22:07;5.90;;;5.10;;
7767;SDS011;3928;42.626;23.382;2023-09-19T09:24:36;9.48;;;5.50;;
7767;SDS011;3928;42.626;23.382;2023-09-19T09:27:05;6.10;;;5.15;;
7767;SDS011;3928;42.626;23.382;2023-09-19T09:29:40;11.43;;;5.75;;
7767;SDS011;3928;42.626;23.382;2023-09-19T09:32:21;9.57;;;5.03;;
7767;SDS011;3928;42.626;23.382;2023-09-19T09:34:50;7.57;;;4.38;;
7767;SDS011;3928;42.626;23.382;2023-09-19T09:37:19;6.35;;;4.72;;
7767;SDS011;3928;42.626;23.382;2023-09-19T09:39:52;7.13;;;5.13;;
7767;SDS011;3928;42.626;23.382;2023-09-19T09:42:31;6.53;;;5.03;;
7767;SDS011;3928;42.626;23.382;2023-09-19T09:45:13;6.90;;;4.72;;
7767;SDS011;3928;42.626;23.382;2023-09-19T09:47:42;6.95;;;5.30;;
7767;SDS011;3928;42.626;23.382;2023-09-19T09:50:23;5.93;;;4.75;;
7767;SDS011;3928;42.626;23.382;2023-09-19T09:53:05;7.95;;;5.00;;
7767;SDS011;3928;42.626;23.382;2023-09-19T09:56:04;6.60;;;4.78;;
7767;SDS011;3928;42.626;23.382;2023-09-19T09:58:32;6.68;;;4.95;;
7767;SDS011;3928;42.626;23.382;2023-09-19T10:01:00;8.65;;;5.05;;
7767;SDS011;3928;42.626;23.382;2023-09-19T10:03:34;6.35;;;5.03;;
7767;SDS011;3928;42.626;23.382;2023-09-19T10:06:06;6.38;;;4.88;;
7767;SDS011;3928;42.626;23.382;2023-09-19T10:08:58;7.30;;;5.25;;
7767;SDS011;3928;42.626;23.382;2023-09-19T10:11:40;11.32;;;5.00;;
7767;SDS011;3928;42.626;23.382;2023-09-19T10:14:09;9.70;;;5.25;;
7767;SDS011;3928;42.626;23.382;2023-09-19T10:16:40;4.80;;;4.38;;
7767;SDS011;3928;42.626;23.382;2023-09-19T10:19:29;7.55;;;5.00;;
7767;SDS011;3928;42.626;23.382;2023-09-19T10:22:02;8.45;;;4.68;;
7767;SDS011;3928;42.626;23.382;2023-09-19T10:24:33;8.00;;;5.22;;
7767;SDS011;3928;42.626;23.382;2023-09-19T10:27:05;8.80;;;4.90;;
7767;SDS011;3928;42.626;23.382;2023-09-19T10:29:34;6.55;;;4.28;;
7767;SDS011;3928;42.626;23.382;2023-09-19T10:32:05;5.45;;;4.82;;
7767;SDS011;3928;42.626;23.382;2023-09-19T10:34:34;7.00;;;4.85;;
7767;SDS011;3928;42.626;23.382;2023-09-19T10:37:02;7.93;;;4.82;;
7767;SDS011;3928;42.626;23.382;2023-09-19T10:39:31;6.70;;;5.00;;
7767;SDS011;3928;42.626;23.382;2023-09-19T10:42:01;6.82;;;4.57;;
7767;SDS011;3928;42.626;23.382;2023-09-19T10:44:32;8.73;;;5.50;;
7767;SDS011;3928;42.626;23.382;2023-09-19T10:46:59;4.82;;;4.38;;
7767;SDS011;3928;42.626;23.382;2023-09-19T10:49:26;7.05;;;4.57;;
7767;SDS011;3928;42.626;23.382;2023-09-19T10:51:54;6.50;;;4.82;;
7767;SDS011;3928;42.626;23.382;2023-09-19T10:54:26;5.45;;;4.95;;
7767;SDS011;3928;42.626;23.382;2023-09-19T10:56:55;7.75;;;4.88;;
7767;SDS011;3928;42.626;23.382;2023-09-19T10:59:24;5.75;;;4.60;;
7767;SDS011;3928;42.626;23.382;2023-09-19T11:02:15;6.55;;;4.95;;
7767;SDS011;3928;42.626;23.382;2023-09-19T11:04:42;8.07;;;4.70;;
7767;SDS011;3928;42.626;23.382;2023-09-19T11:07:13;6.57;;;4.90;;
7767;SDS011;3928;42.626;23.382;2023-09-19T11:09:44;6.13;;;5.35;;
7767;SDS011;3928;42.626;23.382;2023-09-19T11:12:12;7.05;;;4.60;;
7767;SDS011;3928;42.626;23.382;2023-09-19T11:21:39;7.20;;;4.93;;
7767;SDS011;3928;42.626;23.382;2023-09-19T11:27:08;6.05;;;4.93;;
7767;SDS011;3928;42.626;23.382;2023-09-19T11:29:37;5.80;;;4.97;;
7767;SDS011;3928;42.626;23.382;2023-09-19T11:32:04;8.68;;;5.50;;
7767;SDS011;3928;42.626;23.382;2023-09-19T11:34:41;10.90;;;5.15;;
7767;SDS011;3928;42.626;23.382;2023-09-19T11:40:37;5.97;;;4.95;;
7767;SDS011;3928;42.626;23.382;2023-09-19T11:46:05;8.75;;;5.57;;
7767;SDS011;3928;42.626;23.382;2023-09-19T11:48:33;8.38;;;5.65;;
7767;SDS011;3928;42.626;23.382;2023-09-19T11:51:09;7.05;;;4.70;;
7767;SDS011;3928;42.626;23.382;2023-09-19T11:53:41;12.95;;;7.95;;
7767;SDS011;3928;42.626;23.382;2023-09-19T11:56:11;9.30;;;5.10;;
7767;SDS011;3928;42.626;23.382;2023-09-19T11:58:40;8.73;;;5.13;;
7767;SDS011;3928;42.626;23.382;2023-09-19T12:01:08;7.80;;;5.63;;
7767;SDS011;3928;42.626;23.382;2023-09-19T12:03:40;5.25;;;4.72;;
7767;SDS011;3928;42.626;23.382;2023-09-19T12:06:13;6.35;;;5.47;;
7767;SDS011;3928;42.626;23.382;2023-09-19T12:08:41;5.50;;;5.00;;
7767;SDS011;3928;42.626;23.382;2023-09-19T12:11:13;6.47;;;4.72;;
7767;SDS011;3928;42.626;23.382;2023-09-19T12:13:42;7.65;;;4.65;;
7767;SDS011;3928;42.626;23.382;2023-09-19T12:16:11;8.13;;;4.93;;
7767;SDS011;3928;42.626;23.382;2023-09-19T12:18:41;8.90;;;5.25;;
7767;SDS011;3928;42.626;23.382;2023-09-19T12:21:20;8.85;;;5.65;;
7767;SDS011;3928;42.626;23.382;2023-09-19T12:23:58;6.55;;;4.75;;
7767;SDS011;3928;42.626;23.382;2023-09-19T12:26:27;6.53;;;5.07;;
7767;SDS011;3928;42.626;23.382;2023-09-19T12:28:54;9.68;;;5.07;;
7767;SDS011;3928;42.626;23.382;2023-09-19T12:31:22;8.90;;;5.53;;
7767;SDS011;3928;42.626;23.382;2023-09-19T12:33:54;7.28;;;4.93;;
7767;SDS011;3928;42.626;23.382;2023-09-19T12:36:21;7.57;;;5.35;;
7767;SDS011;3928;42.626;23.382;2023-09-19T12:38:54;6.35;;;5.32;;
7767;SDS011;3928;42.626;23.382;2023-09-19T12:41:24;8.40;;;5.22;;
7767;SDS011;3928;42.626;23.382;2023-09-19T12:43:53;6.93;;;4.85;;
7767;SDS011;3928;42.626;23.382;2023-09-19T12:46:20;5.90;;;4.75;;
7767;SDS011;3928;42.626;23.382;2023-09-19T12:51:42;6.18;;;4.55;;
7767;SDS011;3928;42.626;23.382;2023-09-19T12:54:09;6.05;;;4.97;;
7767;SDS011;3928;42.626;23.382;2023-09-19T12:56:39;11.30;;;4.90;;
7767;SDS011;3928;42.626;23.382;2023-09-19T12:59:11;7.70;;;5.07;;
7767;SDS011;3928;42.626;23.382;2023-09-19T13:01:40;5.93;;;4.55;;
7767;SDS011;3928;42.626;23.382;2023-09-19T13:04:14;7.47;;;4.97;;
7767;SDS011;3928;42.626;23.382;2023-09-19T13:06:44;8.93;;;5.70;;
7767;SDS011;3928;42.626;23.382;2023-09-19T13:09:14;7.80;;;4.80;;
7767;SDS011;3928;42.626;23.382;2023-09-19T13:11:41;5.80;;;4.57;;
7767;SDS011;3928;42.626;23.382;2023-09-19T13:14:15;5.30;;;4.80;;
7767;SDS011;3928;42.626;23.382;2023-09-19T13:16:56;4.93;;;4.40;;
7767;SDS011;3928;42.626;23.382;2023-09-19T13:19:35;6.63;;;4.72;;
7767;SDS011;3928;42.626;23.382;2023-09-19T13:25:07;8.73;;;5.20;;
7767;SDS011;3928;42.626;23.382;2023-09-19T13:27:39;6.15;;;4.88;;
7767;SDS011;3928;42.626;23.382;2023-09-19T13:30:08;6.65;;;4.30;;
7767;SDS011;3928;42.626;23.382;2023-09-19T13:32:36;6.88;;;4.80;;
7767;SDS011;3928;42.626;23.382;2023-09-19T13:35:04;8.05;;;4.63;;
7767;SDS011;3928;42.626;23.382;2023-09-19T13:37:34;11.93;;;5.03;;
7767;SDS011;3928;42.626;23.382;2023-09-19T13:40:01;6.57;;;4.40;;
7767;SDS011;3928;42.626;23.382;2023-09-19T13:42:30;8.02;;;4.63;;
7767;SDS011;3928;42.626;23.382;2023-09-19T13:44:57;10.15;;;5.18;;
7767;SDS011;3928;42.626;23.382;2023-09-19T13:47:25;5.82;;;5.03;;
7767;SDS011;3928;42.626;23.382;2023-09-19T13:49:53;8.00;;;5.15;;
7767;SDS011;3928;42.626;23.382;2023-09-19T13:52:20;5.60;;;4.80;;
7767;SDS011;3928;42.626;23.382;2023-09-19T13:54:48;5.10;;;4.30;;
7767;SDS011;3928;42.626;23.382;2023-09-19T13:57:16;5.47;;;4.40;;
7767;SDS011;3928;42.626;23.382;2023-09-19T13:59:43;7.13;;;4.60;;
7767;SDS011;3928;42.626;23.382;2023-09-19T14:02:10;8.35;;;4.80;;
7767;SDS011;3928;42.626;23.382;2023-09-19T14:04:40;8.30;;;4.85;;
7767;SDS011;3928;42.626;23.382;2023-09-19T14:07:07;6.90;;;5.10;;
7767;SDS011;3928;42.626;23.382;2023-09-19T14:09:34;5.15;;;4.68;;
7767;SDS011;3928;42.626;23.382;2023-09-19T14:12:01;4.80;;;4.13;;
7767;SDS011;3928;42.626;23.382;2023-09-19T14:14:28;7.47;;;4.40;;
7767;SDS011;3928;42.626;23.382;2023-09-19T14:16:55;4.88;;;4.30;;
7767;SDS011;3928;42.626;23.382;2023-09-19T14:19:22;10.43;;;4.32;;
7767;SDS011;3928;42.626;23.382;2023-09-19T14:21:50;11.02;;;5.10;;
7767;SDS011;3928;42.626;23.382;2023-09-19T14:24:20;6.13;;;4.95;;
7767;SDS011;3928;42.626;23.382;2023-09-19T14:26:47;5.85;;;4.75;;
7767;SDS011;3928;42.626;23.382;2023-09-19T14:29:14;8.15;;;4.40;;
7767;SDS011;3928;42.626;23.382;2023-09-19T14:31:41;6.95;;;4.88;;
7767;SDS011;3928;42.626;23.382;2023-09-19T14:34:08;6.80;;;4.68;;
7767;SDS011;3928;42.626;23.382;2023-09-19T14:36:36;6.57;;;4.63;;
7767;SDS011;3928;42.626;23.382;2023-09-19T14:39:05;8.05;;;4.93;;
7767;SDS011;3928;42.626;23.382;2023-09-19T14:41:33;7.82;;;5.28;;
7767;SDS011;3928;42.626;23.382;2023-09-19T14:44:01;6.85;;;5.68;;
7767;SDS011;3928;42.626;23.382;2023-09-19T14:46:28;7.65;;;4.72;;
7767;SDS011;3928;42.626;23.382;2023-09-19T14:48:56;8.75;;;5.40;;
7767;SDS011;3928;42.626;23.382;2023-09-19T14:51:24;8.98;;;5.88;;
7767;SDS011;3928;42.626;23.382;2023-09-19T14:53:52;6.20;;;5.65;;
7767;SDS011;3928;42.626;23.382;2023-09-19T14:56:21;9.63;;;5.47;;
7767;SDS011;3928;42.626;23.382;2023-09-19T14:58:49;7.50;;;4.60;;
7767;SDS011;3928;42.626;23.382;2023-09-19T15:01:16;5.85;;;4.80;;
7767;SDS011;3928;42.626;23.382;2023-09-19T15:03:42;8.40;;;5.38;;
7767;SDS011;3928;42.626;23.382;2023-09-19T15:06:11;6.18;;;5.57;;
7767;SDS011;3928;42.626;23.382;2023-09-19T15:08:39;8.57;;;5.50;;
7767;SDS011;3928;42.626;23.382;2023-09-19T15:11:11;8.00;;;5.90;;
7767;SDS011;3928;42.626;23.382;2023-09-19T15:13:39;7.50;;;5.30;;
7767;SDS011;3928;42.626;23.382;2023-09-19T15:16:07;6.07;;;5.25;;
7767;SDS011;3928;42.626;23.382;2023-09-19T15:18:35;8.55;;;5.47;;
7767;SDS011;3928;42.626;23.382;2023-09-19T15:21:04;9.68;;;5.50;;
7767;SDS011;3928;42.626;23.382;2023-09-19T15:23:31;10.70;;;6.53;;
7767;SDS011;3928;42.626;23.382;2023-09-19T15:25:59;10.10;;;5.55;;
7767;SDS011;3928;42.626;23.382;2023-09-19T15:28:26;7.95;;;5.85;;
7767;SDS011;3928;42.626;23.382;2023-09-19T15:31:00;10.63;;;5.53;;
7767;SDS011;3928;42.626;23.382;2023-09-19T15:33:27;23.58;;;7.32;;
7767;SDS011;3928;42.626;23.382;2023-09-19T15:36:00;18.52;;;10.77;;
7767;SDS011;3928;42.626;23.382;2023-09-19T15:38:28;14.63;;;12.50;;